sensor_id;sensor_type;location;lat;lon;timestamp;P1;durP1;ratioP1;P2;durP2;ratioP2
55202;SDS011;41077;52.956;6.796;2023-08-30T00:00:41;739.25;;;686.03;;
55202;SDS011;41077;52.956;6.796;2023-08-30T00:03:07;738.53;;;685.03;;
55202;SDS011;41077;52.956;6.796;2023-08-30T00:05:33;732.88;;;680.78;;
55202;SDS011;41077;52.956;6.796;2023-08-30T00:07:59;728.40;;;676.60;;
55202;SDS011;41077;52.956;6.796;2023-08-30T00:10:24;744.28;;;691.05;;
55202;SDS011;41077;52.956;6.796;2023-08-30T00:12:50;738.90;;;686.90;;
55202;SDS011;41077;52.956;6.796;2023-08-30T00:15:16;746.55;;;692.67;;
55202;SDS011;41077;52.956;6.796;2023-08-30T00:17:42;748.75;;;694.00;;
55202;SDS011;41077;52.956;6.796;2023-08-30T00:20:08;769.85;;;714.40;;
55202;SDS011;41077;52.956;6.796;2023-08-30T00:22:34;779.78;;;722.80;;
55202;SDS011;41077;52.956;6.796;2023-08-30T00:25:00;788.28;;;730.35;;
55202;SDS011;41077;52.956;6.796;2023-08-30T00:27:26;795.40;;;736.92;;
55202;SDS011;41077;52.956;6.796;2023-08-30T00:29:52;786.00;;;728.80;;
55202;SDS011;41077;52.956;6.796;2023-08-30T00:32:18;795.67;;;736.63;;
55202;SDS011;41077;52.956;6.796;2023-08-30T00:34:44;756.28;;;702.38;;
55202;SDS011;41077;52.956;6.796;2023-08-30T00:37:09;752.97;;;698.38;;
55202;SDS011;41077;52.956;6.796;2023-08-30T00:39:38;773.13;;;717.47;;
55202;SDS011;41077;52.956;6.796;2023-08-30T00:42:04;785.88;;;728.63;;
55202;SDS011;41077;52.956;6.796;2023-08-30T00:44:32;790.28;;;732.47;;
55202;SDS011;41077;52.956;6.796;2023-08-30T00:46:59;778.50;;;721.95;;
55202;SDS011;41077;52.956;6.796;2023-08-30T00:49:26;800.53;;;741.78;;
55202;SDS011;41077;52.956;6.796;2023-08-30T00:51:52;807.78;;;748.38;;
55202;SDS011;41077;52.956;6.796;2023-08-30T00:54:19;824.20;;;761.22;;
55202;SDS011;41077;52.956;6.796;2023-08-30T00:56:44;821.00;;;759.35;;
55202;SDS011;41077;52.956;6.796;2023-08-30T00:59:11;818.20;;;757.05;;
55202;SDS011;41077;52.956;6.796;2023-08-30T01:01:38;816.75;;;755.65;;
55202;SDS011;41077;52.956;6.796;2023-08-30T01:04:05;804.60;;;744.70;;
55202;SDS011;41077;52.956;6.796;2023-08-30T01:06:31;811.13;;;751.13;;
55202;SDS011;41077;52.956;6.796;2023-08-30T01:08:56;795.13;;;737.42;;
55202;SDS011;41077;52.956;6.796;2023-08-30T01:11:26;767.58;;;712.67;;
55202;SDS011;41077;52.956;6.796;2023-08-30T01:14:03;718.33;;;668.03;;
55202;SDS011;41077;52.956;6.796;2023-08-30T01:16:33;697.42;;;648.97;;
55202;SDS011;41077;52.956;6.796;2023-08-30T01:19:03;690.20;;;642.72;;
55202;SDS011;41077;52.956;6.796;2023-08-30T01:24:27;727.05;;;676.03;;
55202;SDS011;41077;52.956;6.796;2023-08-30T01:29:39;757.47;;;704.15;;
55202;SDS011;41077;52.956;6.796;2023-08-30T01:32:09;762.60;;;707.45;;
55202;SDS011;41077;52.956;6.796;2023-08-30T01:34:38;768.25;;;711.90;;
55202;SDS011;41077;52.956;6.796;2023-08-30T01:37:07;769.30;;;713.40;;
55202;SDS011;41077;52.956;6.796;2023-08-30T01:39:35;771.92;;;715.28;;
55202;SDS011;41077;52.956;6.796;2023-08-30T01:42:02;771.95;;;715.28;;
55202;SDS011;41077;52.956;6.796;2023-08-30T01:44:28;769.00;;;713.13;;
55202;SDS011;41077;52.956;6.796;2023-08-30T01:46:56;782.75;;;725.35;;
55202;SDS011;41077;52.956;6.796;2023-08-30T01:49:23;787.20;;;729.03;;
55202;SDS011;41077;52.956;6.796;2023-08-30T01:51:56;747.47;;;693.58;;
55202;SDS011;41077;52.956;6.796;2023-08-30T01:54:23;770.95;;;715.40;;
55202;SDS011;41077;52.956;6.796;2023-08-30T01:56:50;734.63;;;682.10;;
55202;SDS011;41077;52.956;6.796;2023-08-30T01:59:16;721.50;;;670.85;;
55202;SDS011;41077;52.956;6.796;2023-08-30T02:01:41;711.53;;;661.38;;
55202;SDS011;41077;52.956;6.796;2023-08-30T02:04:07;697.67;;;648.20;;
55202;SDS011;41077;52.956;6.796;2023-08-30T02:06:39;730.45;;;678.92;;
55202;SDS011;41077;52.956;6.796;2023-08-30T02:09:17;695.97;;;647.53;;
55202;SDS011;41077;52.956;6.796;2023-08-30T02:11:48;718.17;;;667.78;;
55202;SDS011;41077;52.956;6.796;2023-08-30T02:14:16;721.60;;;670.40;;
55202;SDS011;41077;52.956;6.796;2023-08-30T02:16:44;720.63;;;670.35;;
55202;SDS011;41077;52.956;6.796;2023-08-30T02:19:11;709.13;;;659.60;;
55202;SDS011;41077;52.956;6.796;2023-08-30T02:21:39;704.40;;;655.13;;
55202;SDS011;41077;52.956;6.796;2023-08-30T02:24:05;705.25;;;655.88;;
55202;SDS011;41077;52.956;6.796;2023-08-30T02:26:31;705.30;;;656.30;;
55202;SDS011;41077;52.956;6.796;2023-08-30T02:28:57;696.05;;;647.95;;
55202;SDS011;41077;52.956;6.796;2023-08-30T02:31:22;687.42;;;640.45;;
55202;SDS011;41077;52.956;6.796;2023-08-30T02:33:48;696.72;;;648.25;;
55202;SDS011;41077;52.956;6.796;2023-08-30T02:36:14;656.53;;;611.70;;
55202;SDS011;41077;52.956;6.796;2023-08-30T02:38:39;674.15;;;628.17;;
55202;SDS011;41077;52.956;6.796;2023-08-30T02:41:05;674.17;;;628.28;;
55202;SDS011;41077;52.956;6.796;2023-08-30T02:43:31;685.45;;;638.50;;
55202;SDS011;41077;52.956;6.796;2023-08-30T02:45:56;669.55;;;623.90;;
55202;SDS011;41077;52.956;6.796;2023-08-30T02:48:22;662.30;;;617.88;;
55202;SDS011;41077;52.956;6.796;2023-08-30T02:50:48;659.67;;;615.38;;
55202;SDS011;41077;52.956;6.796;2023-08-30T02:53:13;637.78;;;595.30;;
55202;SDS011;41077;52.956;6.796;2023-08-30T02:55:39;605.80;;;565.85;;
55202;SDS011;41077;52.956;6.796;2023-08-30T02:58:05;588.53;;;550.20;;
55202;SDS011;41077;52.956;6.796;2023-08-30T03:00:30;581.60;;;543.97;;
55202;SDS011;41077;52.956;6.796;2023-08-30T03:02:56;524.00;;;490.15;;
55202;SDS011;41077;52.956;6.796;2023-08-30T03:05:22;543.22;;;509.05;;
55202;SDS011;41077;52.956;6.796;2023-08-30T03:07:47;561.55;;;524.90;;
55202;SDS011;41077;52.956;6.796;2023-08-30T03:10:13;575.70;;;538.30;;
55202;SDS011;41077;52.956;6.796;2023-08-30T03:12:38;602.15;;;562.88;;
55202;SDS011;41077;52.956;6.796;2023-08-30T03:15:04;603.63;;;563.92;;
55202;SDS011;41077;52.956;6.796;2023-08-30T03:17:31;617.78;;;577.15;;
55202;SDS011;41077;52.956;6.796;2023-08-30T03:19:56;627.00;;;585.70;;
55202;SDS011;41077;52.956;6.796;2023-08-30T03:22:22;600.85;;;561.65;;
55202;SDS011;41077;52.956;6.796;2023-08-30T03:24:48;559.38;;;523.85;;
55202;SDS011;41077;52.956;6.796;2023-08-30T03:27:15;563.88;;;527.50;;
55202;SDS011;41077;52.956;6.796;2023-08-30T03:29:41;601.05;;;562.10;;
55202;SDS011;41077;52.956;6.796;2023-08-30T03:32:07;588.15;;;550.28;;
55202;SDS011;41077;52.956;6.796;2023-08-30T03:34:33;575.05;;;538.25;;
55202;SDS011;41077;52.956;6.796;2023-08-30T03:36:58;581.15;;;544.65;;
55202;SDS011;41077;52.956;6.796;2023-08-30T03:39:24;575.30;;;538.08;;
55202;SDS011;41077;52.956;6.796;2023-08-30T03:41:50;575.30;;;538.58;;
55202;SDS011;41077;52.956;6.796;2023-08-30T03:44:16;573.38;;;536.75;;
55202;SDS011;41077;52.956;6.796;2023-08-30T03:46:41;560.90;;;525.38;;
55202;SDS011;41077;52.956;6.796;2023-08-30T03:49:07;559.60;;;524.67;;
55202;SDS011;41077;52.956;6.796;2023-08-30T03:51:33;536.78;;;503.95;;
55202;SDS011;41077;52.956;6.796;2023-08-30T03:53:59;510.45;;;479.67;;
55202;SDS011;41077;52.956;6.796;2023-08-30T03:56:25;506.85;;;476.30;;
55202;SDS011;41077;52.956;6.796;2023-08-30T03:58:51;534.17;;;501.52;;
55202;SDS011;41077;52.956;6.796;2023-08-30T04:01:16;498.48;;;468.58;;
55202;SDS011;41077;52.956;6.796;2023-08-30T04:03:42;498.95;;;468.95;;
55202;SDS011;41077;52.956;6.796;2023-08-30T04:06:08;528.67;;;496.77;;
55202;SDS011;41077;52.956;6.796;2023-08-30T04:08:33;524.83;;;493.13;;
55202;SDS011;41077;52.956;6.796;2023-08-30T04:10:59;537.58;;;504.40;;
55202;SDS011;41077;52.956;6.796;2023-08-30T04:13:25;518.45;;;487.00;;
55202;SDS011;41077;52.956;6.796;2023-08-30T04:15:50;529.60;;;498.00;;
55202;SDS011;41077;52.956;6.796;2023-08-30T04:18:16;526.83;;;494.77;;
55202;SDS011;41077;52.956;6.796;2023-08-30T04:20:45;527.67;;;495.70;;
55202;SDS011;41077;52.956;6.796;2023-08-30T04:23:12;517.25;;;486.70;;
55202;SDS011;41077;52.956;6.796;2023-08-30T04:25:38;510.08;;;479.42;;
55202;SDS011;41077;52.956;6.796;2023-08-30T04:28:04;525.60;;;494.52;;
55202;SDS011;41077;52.956;6.796;2023-08-30T04:30:30;508.85;;;478.55;;
55202;SDS011;41077;52.956;6.796;2023-08-30T04:32:56;506.05;;;476.20;;
55202;SDS011;41077;52.956;6.796;2023-08-30T04:35:21;516.70;;;485.85;;
55202;SDS011;41077;52.956;6.796;2023-08-30T04:37:47;522.40;;;491.40;;
55202;SDS011;41077;52.956;6.796;2023-08-30T04:40:15;505.33;;;475.77;;
55202;SDS011;41077;52.956;6.796;2023-08-30T04:42:41;523.90;;;493.30;;
55202;SDS011;41077;52.956;6.796;2023-08-30T04:45:07;516.47;;;486.10;;
55202;SDS011;41077;52.956;6.796;2023-08-30T04:47:34;500.27;;;471.02;;
55202;SDS011;41077;52.956;6.796;2023-08-30T04:50:00;500.15;;;470.52;;
55202;SDS011;41077;52.956;6.796;2023-08-30T04:52:26;503.73;;;473.73;;
55202;SDS011;41077;52.956;6.796;2023-08-30T04:54:52;495.80;;;466.52;;
55202;SDS011;41077;52.956;6.796;2023-08-30T04:57:18;497.33;;;467.50;;
55202;SDS011;41077;52.956;6.796;2023-08-30T04:59:44;489.00;;;460.38;;
55202;SDS011;41077;52.956;6.796;2023-08-30T05:02:10;498.67;;;469.05;;
55202;SDS011;41077;52.956;6.796;2023-08-30T05:04:36;490.55;;;461.88;;
55202;SDS011;41077;52.956;6.796;2023-08-30T05:07:02;475.42;;;447.38;;
55202;SDS011;41077;52.956;6.796;2023-08-30T05:09:29;468.92;;;441.33;;
55202;SDS011;41077;52.956;6.796;2023-08-30T05:11:55;491.00;;;462.02;;
55202;SDS011;41077;52.956;6.796;2023-08-30T05:14:21;484.80;;;455.90;;
55202;SDS011;41077;52.956;6.796;2023-08-30T05:16:48;493.80;;;464.27;;
55202;SDS011;41077;52.956;6.796;2023-08-30T05:19:14;502.27;;;471.50;;
55202;SDS011;41077;52.956;6.796;2023-08-30T05:21:42;477.05;;;447.75;;
55202;SDS011;41077;52.956;6.796;2023-08-30T05:24:08;494.23;;;463.45;;
55202;SDS011;41077;52.956;6.796;2023-08-30T05:26:33;498.77;;;468.13;;
55202;SDS011;41077;52.956;6.796;2023-08-30T05:28:59;515.13;;;482.90;;
55202;SDS011;41077;52.956;6.796;2023-08-30T05:31:25;514.45;;;481.88;;
55202;SDS011;41077;52.956;6.796;2023-08-30T05:33:51;513.47;;;481.13;;
55202;SDS011;41077;52.956;6.796;2023-08-30T05:36:16;518.30;;;486.30;;
55202;SDS011;41077;52.956;6.796;2023-08-30T05:38:43;544.03;;;509.20;;
55202;SDS011;41077;52.956;6.796;2023-08-30T05:41:09;524.28;;;492.05;;
55202;SDS011;41077;52.956;6.796;2023-08-30T05:43:34;516.13;;;484.42;;
55202;SDS011;41077;52.956;6.796;2023-08-30T05:46:00;528.60;;;495.98;;
55202;SDS011;41077;52.956;6.796;2023-08-30T05:48:30;559.67;;;525.08;;
55202;SDS011;41077;52.956;6.796;2023-08-30T05:50:56;583.67;;;547.13;;
55202;SDS011;41077;52.956;6.796;2023-08-30T05:53:22;614.42;;;575.53;;
55202;SDS011;41077;52.956;6.796;2023-08-30T05:55:48;592.13;;;555.58;;
55202;SDS011;41077;52.956;6.796;2023-08-30T05:58:14;623.10;;;583.67;;
55202;SDS011;41077;52.956;6.796;2023-08-30T06:00:40;650.70;;;609.20;;
55202;SDS011;41077;52.956;6.796;2023-08-30T06:03:07;646.75;;;605.92;;
55202;SDS011;41077;52.956;6.796;2023-08-30T06:05:33;641.97;;;601.42;;
55202;SDS011;41077;52.956;6.796;2023-08-30T06:07:59;683.58;;;640.00;;
55202;SDS011;41077;52.956;6.796;2023-08-30T06:10:25;694.53;;;650.50;;
55202;SDS011;41077;52.956;6.796;2023-08-30T06:12:52;715.90;;;670.05;;
55202;SDS011;41077;52.956;6.796;2023-08-30T06:15:18;737.83;;;689.85;;
55202;SDS011;41077;52.956;6.796;2023-08-30T06:17:44;725.80;;;679.17;;
55202;SDS011;41077;52.956;6.796;2023-08-30T06:20:14;754.05;;;705.13;;
55202;SDS011;41077;52.956;6.796;2023-08-30T06:22:49;751.47;;;702.88;;
55202;SDS011;41077;52.956;6.796;2023-08-30T06:25:15;756.28;;;707.60;;
55202;SDS011;41077;52.956;6.796;2023-08-30T06:27:42;751.42;;;702.80;;
55202;SDS011;41077;52.956;6.796;2023-08-30T06:30:09;783.38;;;731.25;;
55202;SDS011;41077;52.956;6.796;2023-08-30T06:32:35;794.75;;;741.72;;
55202;SDS011;41077;52.956;6.796;2023-08-30T06:35:01;796.25;;;742.50;;
55202;SDS011;41077;52.956;6.796;2023-08-30T06:37:27;812.38;;;757.33;;
55202;SDS011;41077;52.956;6.796;2023-08-30T06:39:53;818.45;;;761.53;;
55202;SDS011;41077;52.956;6.796;2023-08-30T06:42:19;831.17;;;773.88;;
55202;SDS011;41077;52.956;6.796;2023-08-30T06:44:44;854.92;;;793.80;;
55202;SDS011;41077;52.956;6.796;2023-08-30T06:47:10;822.83;;;765.28;;
55202;SDS011;41077;52.956;6.796;2023-08-30T06:49:36;832.22;;;772.33;;
55202;SDS011;41077;52.956;6.796;2023-08-30T06:52:01;864.22;;;801.80;;
55202;SDS011;41077;52.956;6.796;2023-08-30T06:54:29;842.08;;;781.35;;
55202;SDS011;41077;52.956;6.796;2023-08-30T06:57:00;863.80;;;800.65;;
55202;SDS011;41077;52.956;6.796;2023-08-30T06:59:26;880.67;;;816.55;;
55202;SDS011;41077;52.956;6.796;2023-08-30T07:01:52;888.83;;;823.53;;
55202;SDS011;41077;52.956;6.796;2023-08-30T07:04:21;879.22;;;814.08;;
55202;SDS011;41077;52.956;6.796;2023-08-30T07:06:47;873.92;;;809.45;;
55202;SDS011;41077;52.956;6.796;2023-08-30T07:09:12;881.13;;;816.13;;
55202;SDS011;41077;52.956;6.796;2023-08-30T07:11:39;875.72;;;812.10;;
55202;SDS011;41077;52.956;6.796;2023-08-30T07:14:07;855.53;;;793.25;;
55202;SDS011;41077;52.956;6.796;2023-08-30T07:16:32;853.90;;;789.92;;
55202;SDS011;41077;52.956;6.796;2023-08-30T07:18:58;856.85;;;793.53;;
55202;SDS011;41077;52.956;6.796;2023-08-30T07:21:24;856.42;;;792.22;;
55202;SDS011;41077;52.956;6.796;2023-08-30T07:23:49;864.00;;;798.40;;
55202;SDS011;41077;52.956;6.796;2023-08-30T07:26:15;868.47;;;804.20;;
55202;SDS011;41077;52.956;6.796;2023-08-30T07:28:41;879.58;;;814.67;;
55202;SDS011;41077;52.956;6.796;2023-08-30T07:31:07;870.72;;;806.53;;
55202;SDS011;41077;52.956;6.796;2023-08-30T07:33:32;860.92;;;799.58;;
55202;SDS011;41077;52.956;6.796;2023-08-30T07:35:58;828.97;;;769.65;;
55202;SDS011;41077;52.956;6.796;2023-08-30T07:38:24;781.00;;;726.40;;
55202;SDS011;41077;52.956;6.796;2023-08-30T07:40:49;779.33;;;725.33;;
55202;SDS011;41077;52.956;6.796;2023-08-30T07:43:15;787.00;;;732.13;;
55202;SDS011;41077;52.956;6.796;2023-08-30T07:45:41;812.25;;;755.10;;
55202;SDS011;41077;52.956;6.796;2023-08-30T07:48:07;735.30;;;684.22;;
55202;SDS011;41077;52.956;6.796;2023-08-30T07:50:32;707.53;;;658.53;;
55202;SDS011;41077;52.956;6.796;2023-08-30T07:52:58;711.63;;;662.15;;
55202;SDS011;41077;52.956;6.796;2023-08-30T07:55:23;741.47;;;689.17;;
55202;SDS011;41077;52.956;6.796;2023-08-30T07:57:49;784.97;;;729.13;;
55202;SDS011;41077;52.956;6.796;2023-08-30T08:00:15;833.58;;;772.83;;
55202;SDS011;41077;52.956;6.796;2023-08-30T08:02:41;839.40;;;778.20;;
55202;SDS011;41077;52.956;6.796;2023-08-30T08:05:07;745.83;;;693.00;;
55202;SDS011;41077;52.956;6.796;2023-08-30T08:07:33;660.28;;;615.80;;
55202;SDS011;41077;52.956;6.796;2023-08-30T08:10:01;581.50;;;543.75;;
55202;SDS011;41077;52.956;6.796;2023-08-30T08:12:27;572.97;;;535.10;;
55202;SDS011;41077;52.956;6.796;2023-08-30T08:14:52;562.50;;;524.33;;
55202;SDS011;41077;52.956;6.796;2023-08-30T08:17:18;656.20;;;609.53;;
55202;SDS011;41077;52.956;6.796;2023-08-30T08:19:44;619.17;;;575.13;;
55202;SDS011;41077;52.956;6.796;2023-08-30T08:22:10;553.72;;;514.67;;
55202;SDS011;41077;52.956;6.796;2023-08-30T08:24:35;577.72;;;536.63;;
55202;SDS011;41077;52.956;6.796;2023-08-30T08:27:01;585.60;;;543.95;;
55202;SDS011;41077;52.956;6.796;2023-08-30T08:29:27;601.50;;;559.00;;
55202;SDS011;41077;52.956;6.796;2023-08-30T08:31:53;568.30;;;528.13;;
55202;SDS011;41077;52.956;6.796;2023-08-30T08:34:19;540.85;;;503.75;;
55202;SDS011;41077;52.956;6.796;2023-08-30T08:36:45;526.58;;;491.95;;
55202;SDS011;41077;52.956;6.796;2023-08-30T08:39:10;519.72;;;485.77;;
55202;SDS011;41077;52.956;6.796;2023-08-30T08:41:39;534.83;;;499.95;;
55202;SDS011;41077;52.956;6.796;2023-08-30T08:44:09;524.80;;;490.52;;
55202;SDS011;41077;52.956;6.796;2023-08-30T08:46:36;552.58;;;515.90;;
55202;SDS011;41077;52.956;6.796;2023-08-30T08:49:12;548.53;;;512.65;;
55202;SDS011;41077;52.956;6.796;2023-08-30T08:51:39;556.45;;;519.25;;
55202;SDS011;41077;52.956;6.796;2023-08-30T08:54:06;537.13;;;502.17;;
55202;SDS011;41077;52.956;6.796;2023-08-30T08:56:34;547.33;;;510.88;;
55202;SDS011;41077;52.956;6.796;2023-08-30T08:59:00;542.10;;;505.40;;
55202;SDS011;41077;52.956;6.796;2023-08-30T09:01:26;502.10;;;467.02;;
55202;SDS011;41077;52.956;6.796;2023-08-30T09:03:52;555.78;;;515.95;;
55202;SDS011;41077;52.956;6.796;2023-08-30T09:06:18;636.20;;;589.97;;
55202;SDS011;41077;52.956;6.796;2023-08-30T09:08:45;672.63;;;623.28;;
55202;SDS011;41077;52.956;6.796;2023-08-30T09:11:10;703.20;;;651.25;;
55202;SDS011;41077;52.956;6.796;2023-08-30T09:13:36;803.95;;;743.33;;
55202;SDS011;41077;52.956;6.796;2023-08-30T09:16:02;816.17;;;754.80;;
55202;SDS011;41077;52.956;6.796;2023-08-30T09:18:28;815.70;;;755.00;;
55202;SDS011;41077;52.956;6.796;2023-08-30T09:21:07;792.20;;;733.58;;
55202;SDS011;41077;52.956;6.796;2023-08-30T09:23:33;826.85;;;764.10;;
55202;SDS011;41077;52.956;6.796;2023-08-30T09:25:59;815.80;;;755.72;;
55202;SDS011;41077;52.956;6.796;2023-08-30T09:28:26;840.55;;;776.35;;
55202;SDS011;41077;52.956;6.796;2023-08-30T09:30:52;831.05;;;768.63;;
55202;SDS011;41077;52.956;6.796;2023-08-30T09:33:21;792.28;;;734.47;;
55202;SDS011;41077;52.956;6.796;2023-08-30T09:35:47;764.70;;;711.28;;
55202;SDS011;41077;52.956;6.796;2023-08-30T09:38:17;800.35;;;742.58;;
55202;SDS011;41077;52.956;6.796;2023-08-30T09:40:45;806.13;;;747.08;;
55202;SDS011;41077;52.956;6.796;2023-08-30T09:43:11;795.63;;;738.60;;
55202;SDS011;41077;52.956;6.796;2023-08-30T09:45:38;837.58;;;775.28;;
55202;SDS011;41077;52.956;6.796;2023-08-30T09:48:05;863.90;;;798.35;;
55202;SDS011;41077;52.956;6.796;2023-08-30T09:50:33;849.58;;;785.15;;
55202;SDS011;41077;52.956;6.796;2023-08-30T09:53:07;873.38;;;805.78;;
55202;SDS011;41077;52.956;6.796;2023-08-30T09:55:36;857.53;;;791.83;;
55202;SDS011;41077;52.956;6.796;2023-08-30T09:58:03;842.00;;;777.88;;
55202;SDS011;41077;52.956;6.796;2023-08-30T10:00:32;845.97;;;781.53;;
55202;SDS011;41077;52.956;6.796;2023-08-30T10:03:01;806.25;;;745.58;;
55202;SDS011;41077;52.956;6.796;2023-08-30T10:05:28;730.95;;;676.83;;
55202;SDS011;41077;52.956;6.796;2023-08-30T10:07:54;657.25;;;610.28;;
55202;SDS011;41077;52.956;6.796;2023-08-30T10:10:22;621.75;;;577.15;;
55202;SDS011;41077;52.956;6.796;2023-08-30T10:12:48;581.92;;;541.28;;
55202;SDS011;41077;52.956;6.796;2023-08-30T10:15:14;556.10;;;519.13;;
55202;SDS011;41077;52.956;6.796;2023-08-30T10:17:41;519.38;;;485.23;;
55202;SDS011;41077;52.956;6.796;2023-08-30T10:20:11;551.58;;;514.28;;
55202;SDS011;41077;52.956;6.796;2023-08-30T10:22:39;569.13;;;531.30;;
55202;SDS011;41077;52.956;6.796;2023-08-30T10:25:10;595.03;;;554.38;;
55202;SDS011;41077;52.956;6.796;2023-08-30T10:27:47;645.45;;;600.90;;
55202;SDS011;41077;52.956;6.796;2023-08-30T10:30:15;677.95;;;630.80;;
55202;SDS011;41077;52.956;6.796;2023-08-30T10:32:43;687.40;;;639.00;;
55202;SDS011;41077;52.956;6.796;2023-08-30T10:35:14;737.03;;;683.38;;
55202;SDS011;41077;52.956;6.796;2023-08-30T10:37:41;732.28;;;679.65;;
55202;SDS011;41077;52.956;6.796;2023-08-30T10:40:07;740.05;;;685.75;;
55202;SDS011;41077;52.956;6.796;2023-08-30T10:42:33;750.30;;;694.20;;
55202;SDS011;41077;52.956;6.796;2023-08-30T10:45:00;766.72;;;708.70;;
55202;SDS011;41077;52.956;6.796;2023-08-30T10:47:30;763.83;;;705.90;;
55202;SDS011;41077;52.956;6.796;2023-08-30T10:50:00;747.35;;;689.65;;
55202;SDS011;41077;52.956;6.796;2023-08-30T10:52:30;728.33;;;672.00;;
55202;SDS011;41077;52.956;6.796;2023-08-30T10:55:08;717.38;;;661.63;;
55202;SDS011;41077;52.956;6.796;2023-08-30T10:57:36;704.83;;;650.83;;
55202;SDS011;41077;52.956;6.796;2023-08-30T11:02:44;694.53;;;643.05;;
55202;SDS011;41077;52.956;6.796;2023-08-30T11:05:11;680.05;;;630.33;;
55202;SDS011;41077;52.956;6.796;2023-08-30T11:07:37;693.88;;;643.95;;
55202;SDS011;41077;52.956;6.796;2023-08-30T11:10:04;679.83;;;630.42;;
55202;SDS011;41077;52.956;6.796;2023-08-30T11:12:31;689.75;;;639.72;;
55202;SDS011;41077;52.956;6.796;2023-08-30T11:14:57;691.72;;;641.78;;
55202;SDS011;41077;52.956;6.796;2023-08-30T11:17:23;688.70;;;638.53;;
55202;SDS011;41077;52.956;6.796;2023-08-30T11:19:49;672.92;;;624.15;;
55202;SDS011;41077;52.956;6.796;2023-08-30T11:22:16;660.97;;;612.88;;
55202;SDS011;41077;52.956;6.796;2023-08-30T11:24:43;677.00;;;628.28;;
55202;SDS011;41077;52.956;6.796;2023-08-30T11:27:09;687.70;;;638.08;;
55202;SDS011;41077;52.956;6.796;2023-08-30T11:29:35;672.70;;;623.70;;
55202;SDS011;41077;52.956;6.796;2023-08-30T11:32:01;675.55;;;627.00;;
55202;SDS011;41077;52.956;6.796;2023-08-30T11:34:27;686.75;;;636.42;;
55202;SDS011;41077;52.956;6.796;2023-08-30T11:36:52;679.15;;;629.88;;
55202;SDS011;41077;52.956;6.796;2023-08-30T11:39:19;677.75;;;629.10;;
55202;SDS011;41077;52.956;6.796;2023-08-30T11:41:45;644.33;;;598.63;;
55202;SDS011;41077;52.956;6.796;2023-08-30T11:44:11;643.05;;;597.42;;
55202;SDS011;41077;52.956;6.796;2023-08-30T11:46:37;640.15;;;595.17;;
55202;SDS011;41077;52.956;6.796;2023-08-30T11:49:03;630.85;;;587.35;;
55202;SDS011;41077;52.956;6.796;2023-08-30T11:51:29;640.08;;;595.72;;
55202;SDS011;41077;52.956;6.796;2023-08-30T11:53:55;642.70;;;599.10;;
55202;SDS011;41077;52.956;6.796;2023-08-30T11:56:22;613.35;;;572.25;;
55202;SDS011;41077;52.956;6.796;2023-08-30T11:58:48;621.65;;;579.03;;
55202;SDS011;41077;52.956;6.796;2023-08-30T12:01:14;626.20;;;583.25;;
55202;SDS011;41077;52.956;6.796;2023-08-30T12:03:40;627.72;;;583.83;;
55202;SDS011;41077;52.956;6.796;2023-08-30T12:06:09;638.97;;;593.33;;
55202;SDS011;41077;52.956;6.796;2023-08-30T12:08:36;681.25;;;630.35;;
55202;SDS011;41077;52.956;6.796;2023-08-30T12:11:02;690.70;;;638.60;;
55202;SDS011;41077;52.956;6.796;2023-08-30T12:13:34;741.72;;;684.67;;
55202;SDS011;41077;52.956;6.796;2023-08-30T12:16:00;780.47;;;720.35;;
55202;SDS011;41077;52.956;6.796;2023-08-30T12:18:27;793.75;;;733.08;;
55202;SDS011;41077;52.956;6.796;2023-08-30T12:21:00;848.60;;;781.70;;
55202;SDS011;41077;52.956;6.796;2023-08-30T12:23:31;839.53;;;776.97;;
55202;SDS011;41077;52.956;6.796;2023-08-30T12:25:58;848.00;;;783.78;;
55202;SDS011;41077;52.956;6.796;2023-08-30T12:28:29;891.17;;;820.88;;
55202;SDS011;41077;52.956;6.796;2023-08-30T12:30:55;908.15;;;835.97;;
55202;SDS011;41077;52.956;6.796;2023-08-30T12:33:22;936.63;;;860.42;;
55202;SDS011;41077;52.956;6.796;2023-08-30T12:35:50;964.03;;;883.58;;
55202;SDS011;41077;52.956;6.796;2023-08-30T12:38:16;1001.58;;;917.17;;
55202;SDS011;41077;52.956;6.796;2023-08-30T12:40:45;981.10;;;899.20;;
55202;SDS011;41077;52.956;6.796;2023-08-30T12:43:12;981.33;;;898.55;;
55202;SDS011;41077;52.956;6.796;2023-08-30T12:45:39;994.10;;;909.58;;
55202;SDS011;41077;52.956;6.796;2023-08-30T12:48:06;994.65;;;911.45;;
55202;SDS011;41077;52.956;6.796;2023-08-30T12:50:33;997.35;;;913.28;;
55202;SDS011;41077;52.956;6.796;2023-08-30T12:52:59;1005.15;;;921.75;;
55202;SDS011;41077;52.956;6.796;2023-08-30T12:55:24;1021.35;;;934.97;;
55202;SDS011;41077;52.956;6.796;2023-08-30T12:57:50;1015.25;;;930.40;;
55202;SDS011;41077;52.956;6.796;2023-08-30T13:00:16;998.28;;;915.13;;
55202;SDS011;41077;52.956;6.796;2023-08-30T13:02:41;993.05;;;908.60;;
55202;SDS011;41077;52.956;6.796;2023-08-30T13:05:07;1001.13;;;916.70;;
55202;SDS011;41077;52.956;6.796;2023-08-30T13:07:33;994.40;;;910.72;;
55202;SDS011;41077;52.956;6.796;2023-08-30T13:09:59;1003.78;;;919.85;;
55202;SDS011;41077;52.956;6.796;2023-08-30T13:12:24;1003.67;;;919.20;;
55202;SDS011;41077;52.956;6.796;2023-08-30T13:14:50;988.85;;;906.55;;
55202;SDS011;41077;52.956;6.796;2023-08-30T13:17:16;993.70;;;910.42;;
55202;SDS011;41077;52.956;6.796;2023-08-30T13:19:43;997.78;;;914.58;;
55202;SDS011;41077;52.956;6.796;2023-08-30T13:22:09;1003.75;;;919.35;;
55202;SDS011;41077;52.956;6.796;2023-08-30T13:24:35;1008.53;;;922.28;;
55202;SDS011;41077;52.956;6.796;2023-08-30T13:27:01;1021.00;;;933.90;;
55202;SDS011;41077;52.956;6.796;2023-08-30T13:29:28;1023.28;;;935.17;;
55202;SDS011;41077;52.956;6.796;2023-08-30T13:31:54;1028.28;;;940.47;;
55202;SDS011;41077;52.956;6.796;2023-08-30T13:34:19;1021.22;;;934.20;;
55202;SDS011;41077;52.956;6.796;2023-08-30T13:36:45;1018.78;;;930.45;;
55202;SDS011;41077;52.956;6.796;2023-08-30T13:39:11;1031.35;;;942.40;;
55202;SDS011;41077;52.956;6.796;2023-08-30T13:41:36;1035.72;;;946.08;;
55202;SDS011;41077;52.956;6.796;2023-08-30T13:44:02;1042.72;;;952.50;;
55202;SDS011;41077;52.956;6.796;2023-08-30T13:46:31;1022.10;;;935.58;;
55202;SDS011;41077;52.956;6.796;2023-08-30T13:48:57;1023.15;;;936.20;;
55202;SDS011;41077;52.956;6.796;2023-08-30T13:51:24;1027.47;;;939.92;;
55202;SDS011;41077;52.956;6.796;2023-08-30T13:53:51;1022.05;;;935.28;;
55202;SDS011;41077;52.956;6.796;2023-08-30T13:56:18;1024.63;;;938.28;;
55202;SDS011;41077;52.956;6.796;2023-08-30T13:58:44;1030.72;;;941.88;;
55202;SDS011;41077;52.956;6.796;2023-08-30T14:01:10;1032.82;;;943.63;;